Hlavní strana
METAR-TAF:

METAR-TAF

Letiště :

Førde, Norsko

zeměpisná šířka: 61-27N, zeměpisná délka: 005-52E, výška: 150 m

Aktuální stav počasí

Zpráva byla vytvořena před 30 minutami, v 04:50 UTC
Jižní vítr 10 kt
Teplota 10°C
Vlhkost vzduchu 62%
Tlak 1001 hPa
Viditelnost 10 km a více
Polojasno ve výšce 3500 ft
Oblačno až skoro zataženo ve výšce 4000 ft

METAR: ENBL 240450Z 19010KT 9999 SCT035 BKN040 10/03 Q1001

Čas: 07:20 (05:20 UTC)


TAF: chybějící

Stav a předpovědi počasí z více než 4 000 letišť (zprávy METAR a TAF).

Červené a žluté tečky na mapě představují dostupné meteorologické stanice.

Když kurzor umístíte na tečku, zobrazí se název stanice.

Pak kliknutím zobrazíte stav a předpověď počasí.

Chcete-li změnit mapu, kliknutím na zelené tlačítko se znaménkem +mapu přiblížíte, kliknutím na zelené tlačítko se znaménkem – mapu oddálíte a kliknutím na zelené šipky přejdete na sousední mapy.


METAR-TAF: